Aérodrome :
LOGIN :

S'inscrire | Disclaimer

   EN    FR    IT 

 










Légende :    VFR   VFR Marginal   IFR   IFR Intensif   IFR Très Intensif
Visi : 
Plafond : 
>= 8 km
>= 3000ft
5 à 8 km
1000 à 3000 ft
1500m à 5 km
500 à 1000 ft
800 à 1500m
200 à 500 ft
< 800m
< 200 ft
Symboles :   Orages  Brouillard  Fortes neiges  Fortes précipitations  Vent > 20 kt
SIGMETs :   Divers  Orages  Givrage  Turbulence  Onde Orograph.  Cendres Volcan.






- Altitude de l'aérodrome : 349 ft
- Code IATA : LPP


EFLP - Lappeenranta

DERNIER METAR :
  • 050250Z AUTO 10006KT 070V130 9999 OVC004 11/11 Q0997

METARs EXPIRÉS :
  • 050220Z AUTO 10006KT 070V130 9999 SCT004 OVC024 11/11 Q0997
  • 050150Z AUTO 12005KT 060V160 9999 BKN004 OVC025 11/11 Q0997
  • 050120Z AUTO 12006KT 090V170 9999 OVC003 11/11 Q0997
  • 050050Z AUTO 12008KT 080V150 9999 -DZ OVC002 11/11 Q0997
  • 050020Z AUTO 11006KT 070V150 4000 -SHRA OVC002 11/11 Q0997

Prévision TAF périmée.



MET'MAP, la Météo Aéronautique d'un coup d'oeil ! - Copyright ORBIFLY Décembre 2007 - Disclaimer

ORBIFLY MET'MAP TEAM :

Programmation & Développement : Alexandra Zaïnal
Sur une idée originale de : Baudouin d'Aumeries
Assistance à la programmation : Marc-Olivier Méhu
Soutien technique & logistique : Manuel Goepfert

Contact : metmap@orbifly.com




SOURCES & CREDITS :

   NOAA